sensor_id;sensor_type;location;lat;lon;timestamp;P1;durP1;ratioP1;P2;durP2;ratioP2
27704;SDS011;15109;50.992;6.918;2022-11-14T00:01:11;13.23;;;4.15;;
27704;SDS011;15109;50.992;6.918;2022-11-14T00:04:52;5.70;;;3.30;;
27704;SDS011;15109;50.992;6.918;2022-11-14T00:08:32;6.28;;;3.63;;
27704;SDS011;15109;50.992;6.918;2022-11-14T00:12:13;9.50;;;3.28;;
27704;SDS011;15109;50.992;6.918;2022-11-14T00:15:54;5.75;;;3.53;;
27704;SDS011;15109;50.992;6.918;2022-11-14T00:19:35;8.43;;;4.10;;
27704;SDS011;15109;50.992;6.918;2022-11-14T00:23:15;7.47;;;3.75;;
27704;SDS011;15109;50.992;6.918;2022-11-14T00:26:59;6.47;;;3.55;;
27704;SDS011;15109;50.992;6.918;2022-11-14T00:30:39;9.25;;;4.35;;
27704;SDS011;15109;50.992;6.918;2022-11-14T00:34:20;7.25;;;3.58;;
27704;SDS011;15109;50.992;6.918;2022-11-14T00:38:00;5.07;;;3.00;;
27704;SDS011;15109;50.992;6.918;2022-11-14T00:41:42;8.35;;;4.25;;
27704;SDS011;15109;50.992;6.918;2022-11-14T00:45:25;9.50;;;4.28;;
27704;SDS011;15109;50.992;6.918;2022-11-14T00:49:05;8.77;;;4.00;;
27704;SDS011;15109;50.992;6.918;2022-11-14T00:52:46;6.68;;;3.60;;
27704;SDS011;15109;50.992;6.918;2022-11-14T00:56:32;5.97;;;3.53;;
27704;SDS011;15109;50.992;6.918;2022-11-14T01:00:12;5.78;;;3.45;;
27704;SDS011;15109;50.992;6.918;2022-11-14T01:03:52;5.95;;;3.20;;
27704;SDS011;15109;50.992;6.918;2022-11-14T01:07:32;5.82;;;3.13;;
27704;SDS011;15109;50.992;6.918;2022-11-14T01:11:19;3.85;;;2.42;;
27704;SDS011;15109;50.992;6.918;2022-11-14T01:15:02;7.55;;;3.38;;
27704;SDS011;15109;50.992;6.918;2022-11-14T01:18:42;7.32;;;2.97;;
27704;SDS011;15109;50.992;6.918;2022-11-14T01:22:22;11.50;;;3.20;;
27704;SDS011;15109;50.992;6.918;2022-11-14T01:26:04;6.80;;;3.22;;
27704;SDS011;15109;50.992;6.918;2022-11-14T01:29:49;5.13;;;2.55;;
27704;SDS011;15109;50.992;6.918;2022-11-14T01:33:30;6.95;;;2.67;;
27704;SDS011;15109;50.992;6.918;2022-11-14T01:37:11;4.78;;;2.45;;
27704;SDS011;15109;50.992;6.918;2022-11-14T01:40:52;8.30;;;3.17;;
27704;SDS011;15109;50.992;6.918;2022-11-14T01:44:50;7.07;;;3.72;;
27704;SDS011;15109;50.992;6.918;2022-11-14T01:48:41;3.47;;;2.13;;
27704;SDS011;15109;50.992;6.918;2022-11-14T01:52:34;6.45;;;2.90;;
27704;SDS011;15109;50.992;6.918;2022-11-14T01:56:34;4.82;;;2.67;;
27704;SDS011;15109;50.992;6.918;2022-11-14T02:00:19;6.03;;;2.72;;
27704;SDS011;15109;50.992;6.918;2022-11-14T02:03:59;6.32;;;3.30;;
27704;SDS011;15109;50.992;6.918;2022-11-14T02:07:41;4.30;;;2.58;;
27704;SDS011;15109;50.992;6.918;2022-11-14T02:11:21;3.85;;;2.53;;
27704;SDS011;15109;50.992;6.918;2022-11-14T02:15:01;4.25;;;2.25;;
27704;SDS011;15109;50.992;6.918;2022-11-14T02:18:41;6.03;;;2.95;;
27704;SDS011;15109;50.992;6.918;2022-11-14T02:22:22;5.65;;;2.85;;
27704;SDS011;15109;50.992;6.918;2022-11-14T02:26:05;5.55;;;2.72;;
27704;SDS011;15109;50.992;6.918;2022-11-14T02:29:45;4.57;;;2.60;;
27704;SDS011;15109;50.992;6.918;2022-11-14T02:33:27;7.18;;;2.47;;
27704;SDS011;15109;50.992;6.918;2022-11-14T02:37:09;5.85;;;2.70;;
27704;SDS011;15109;50.992;6.918;2022-11-14T02:40:49;5.53;;;2.38;;
27704;SDS011;15109;50.992;6.918;2022-11-14T02:44:29;5.43;;;2.25;;
27704;SDS011;15109;50.992;6.918;2022-11-14T02:48:08;5.03;;;2.85;;
27704;SDS011;15109;50.992;6.918;2022-11-14T02:51:54;7.57;;;3.67;;
27704;SDS011;15109;50.992;6.918;2022-11-14T02:55:34;6.65;;;2.92;;
27704;SDS011;15109;50.992;6.918;2022-11-14T02:59:15;4.75;;;2.78;;
27704;SDS011;15109;50.992;6.918;2022-11-14T03:02:57;3.78;;;2.22;;
27704;SDS011;15109;50.992;6.918;2022-11-14T03:06:38;3.85;;;2.20;;
27704;SDS011;15109;50.992;6.918;2022-11-14T03:10:18;2.42;;;1.65;;
27704;SDS011;15109;50.992;6.918;2022-11-14T03:13:59;2.95;;;1.83;;
27704;SDS011;15109;50.992;6.918;2022-11-14T03:17:41;6.28;;;2.70;;
27704;SDS011;15109;50.992;6.918;2022-11-14T03:21:21;4.47;;;2.42;;
27704;SDS011;15109;50.992;6.918;2022-11-14T03:25:02;6.63;;;2.67;;
27704;SDS011;15109;50.992;6.918;2022-11-14T03:28:42;5.03;;;2.53;;
27704;SDS011;15109;50.992;6.918;2022-11-14T03:32:22;2.40;;;1.73;;
27704;SDS011;15109;50.992;6.918;2022-11-14T03:36:03;3.60;;;2.03;;
27704;SDS011;15109;50.992;6.918;2022-11-14T03:39:44;5.35;;;2.42;;
27704;SDS011;15109;50.992;6.918;2022-11-14T03:43:25;2.15;;;1.45;;
27704;SDS011;15109;50.992;6.918;2022-11-14T03:47:08;3.60;;;1.92;;
27704;SDS011;15109;50.992;6.918;2022-11-14T03:50:47;2.30;;;1.45;;
27704;SDS011;15109;50.992;6.918;2022-11-14T03:54:27;4.00;;;1.95;;
27704;SDS011;15109;50.992;6.918;2022-11-14T03:58:08;6.72;;;1.83;;
27704;SDS011;15109;50.992;6.918;2022-11-14T04:01:48;5.65;;;2.13;;
27704;SDS011;15109;50.992;6.918;2022-11-14T04:05:27;7.07;;;2.10;;
27704;SDS011;15109;50.992;6.918;2022-11-14T04:09:08;4.45;;;1.75;;
27704;SDS011;15109;50.992;6.918;2022-11-14T04:12:52;2.80;;;1.50;;
27704;SDS011;15109;50.992;6.918;2022-11-14T04:16:33;3.13;;;1.67;;
27704;SDS011;15109;50.992;6.918;2022-11-14T04:20:14;2.03;;;1.23;;
27704;SDS011;15109;50.992;6.918;2022-11-14T04:23:55;1.75;;;1.13;;
27704;SDS011;15109;50.992;6.918;2022-11-14T04:27:34;1.70;;;1.02;;
27704;SDS011;15109;50.992;6.918;2022-11-14T04:31:15;3.58;;;1.73;;
27704;SDS011;15109;50.992;6.918;2022-11-14T04:34:58;2.00;;;1.23;;
27704;SDS011;15109;50.992;6.918;2022-11-14T04:38:38;2.70;;;1.10;;
27704;SDS011;15109;50.992;6.918;2022-11-14T04:42:20;4.32;;;2.15;;
27704;SDS011;15109;50.992;6.918;2022-11-14T04:46:00;2.85;;;1.52;;
27704;SDS011;15109;50.992;6.918;2022-11-14T04:49:40;2.85;;;1.30;;
27704;SDS011;15109;50.992;6.918;2022-11-14T04:53:25;3.50;;;1.67;;
27704;SDS011;15109;50.992;6.918;2022-11-14T04:57:12;3.53;;;1.85;;
27704;SDS011;15109;50.992;6.918;2022-11-14T05:00:52;4.60;;;2.15;;
27704;SDS011;15109;50.992;6.918;2022-11-14T05:04:33;2.63;;;1.58;;
27704;SDS011;15109;50.992;6.918;2022-11-14T05:08:13;2.78;;;1.50;;
27704;SDS011;15109;50.992;6.918;2022-11-14T05:11:55;3.78;;;1.83;;
27704;SDS011;15109;50.992;6.918;2022-11-14T05:15:37;7.70;;;2.15;;
27704;SDS011;15109;50.992;6.918;2022-11-14T05:19:17;3.67;;;1.70;;
27704;SDS011;15109;50.992;6.918;2022-11-14T05:22:56;2.00;;;1.33;;
27704;SDS011;15109;50.992;6.918;2022-11-14T05:26:36;2.97;;;1.70;;
27704;SDS011;15109;50.992;6.918;2022-11-14T05:30:17;3.38;;;1.77;;
27704;SDS011;15109;50.992;6.918;2022-11-14T05:33:57;3.65;;;1.70;;
27704;SDS011;15109;50.992;6.918;2022-11-14T05:37:39;1.83;;;1.10;;
27704;SDS011;15109;50.992;6.918;2022-11-14T05:41:20;4.63;;;1.67;;
27704;SDS011;15109;50.992;6.918;2022-11-14T05:45:00;2.65;;;1.30;;
27704;SDS011;15109;50.992;6.918;2022-11-14T05:48:40;3.03;;;1.80;;
27704;SDS011;15109;50.992;6.918;2022-11-14T05:52:20;2.53;;;1.27;;
27704;SDS011;15109;50.992;6.918;2022-11-14T05:56:04;4.00;;;1.92;;
27704;SDS011;15109;50.992;6.918;2022-11-14T05:59:53;3.63;;;1.65;;
27704;SDS011;15109;50.992;6.918;2022-11-14T06:03:37;3.35;;;1.75;;
27704;SDS011;15109;50.992;6.918;2022-11-14T06:07:20;2.30;;;1.42;;
27704;SDS011;15109;50.992;6.918;2022-11-14T06:11:03;3.95;;;1.60;;
27704;SDS011;15109;50.992;6.918;2022-11-14T06:14:47;4.82;;;2.35;;
27704;SDS011;15109;50.992;6.918;2022-11-14T06:18:31;6.75;;;2.03;;
27704;SDS011;15109;50.992;6.918;2022-11-14T06:22:13;5.30;;;2.10;;
27704;SDS011;15109;50.992;6.918;2022-11-14T06:29:43;6.07;;;2.17;;
27704;SDS011;15109;50.992;6.918;2022-11-14T06:33:22;4.32;;;2.22;;
27704;SDS011;15109;50.992;6.918;2022-11-14T06:37:03;4.63;;;2.22;;
27704;SDS011;15109;50.992;6.918;2022-11-14T06:40:43;2.80;;;1.60;;
27704;SDS011;15109;50.992;6.918;2022-11-14T06:44:23;7.43;;;2.70;;
27704;SDS011;15109;50.992;6.918;2022-11-14T06:48:03;3.42;;;1.85;;
27704;SDS011;15109;50.992;6.918;2022-11-14T06:51:46;5.03;;;2.28;;
27704;SDS011;15109;50.992;6.918;2022-11-14T06:55:27;3.13;;;1.67;;
27704;SDS011;15109;50.992;6.918;2022-11-14T06:59:08;4.38;;;2.33;;
27704;SDS011;15109;50.992;6.918;2022-11-14T07:02:51;4.65;;;2.67;;
27704;SDS011;15109;50.992;6.918;2022-11-14T07:06:34;4.50;;;2.58;;
27704;SDS011;15109;50.992;6.918;2022-11-14T07:10:14;5.13;;;2.58;;
27704;SDS011;15109;50.992;6.918;2022-11-14T07:13:57;6.50;;;2.72;;
27704;SDS011;15109;50.992;6.918;2022-11-14T07:17:39;5.43;;;3.03;;
27704;SDS011;15109;50.992;6.918;2022-11-14T07:21:19;6.07;;;3.47;;
27704;SDS011;15109;50.992;6.918;2022-11-14T07:25:00;8.00;;;3.90;;
27704;SDS011;15109;50.992;6.918;2022-11-14T07:28:44;8.48;;;3.63;;
27704;SDS011;15109;50.992;6.918;2022-11-14T07:32:28;6.40;;;3.33;;
27704;SDS011;15109;50.992;6.918;2022-11-14T07:36:08;6.07;;;3.08;;
27704;SDS011;15109;50.992;6.918;2022-11-14T07:39:54;5.03;;;2.60;;
27704;SDS011;15109;50.992;6.918;2022-11-14T07:43:40;5.10;;;2.83;;
27704;SDS011;15109;50.992;6.918;2022-11-14T07:47:25;6.75;;;3.03;;
27704;SDS011;15109;50.992;6.918;2022-11-14T07:51:06;6.68;;;3.28;;
27704;SDS011;15109;50.992;6.918;2022-11-14T07:54:49;5.15;;;2.90;;
27704;SDS011;15109;50.992;6.918;2022-11-14T07:58:29;5.82;;;3.17;;
27704;SDS011;15109;50.992;6.918;2022-11-14T08:02:13;8.75;;;3.38;;
27704;SDS011;15109;50.992;6.918;2022-11-14T08:06:08;6.40;;;3.33;;
27704;SDS011;15109;50.992;6.918;2022-11-14T08:09:49;7.57;;;3.83;;
27704;SDS011;15109;50.992;6.918;2022-11-14T08:13:30;6.45;;;3.03;;
27704;SDS011;15109;50.992;6.918;2022-11-14T08:17:13;7.70;;;3.47;;
27704;SDS011;15109;50.992;6.918;2022-11-14T08:20:53;9.65;;;3.13;;
27704;SDS011;15109;50.992;6.918;2022-11-14T08:24:35;7.65;;;3.33;;
27704;SDS011;15109;50.992;6.918;2022-11-14T08:28:15;7.90;;;4.05;;
27704;SDS011;15109;50.992;6.918;2022-11-14T08:31:55;9.32;;;4.30;;
27704;SDS011;15109;50.992;6.918;2022-11-14T08:35:35;4.50;;;2.90;;
27704;SDS011;15109;50.992;6.918;2022-11-14T08:39:15;12.73;;;4.57;;
27704;SDS011;15109;50.992;6.918;2022-11-14T08:42:59;12.52;;;3.03;;
27704;SDS011;15109;50.992;6.918;2022-11-14T08:46:40;6.45;;;3.58;;
27704;SDS011;15109;50.992;6.918;2022-11-14T08:50:27;9.02;;;4.35;;
27704;SDS011;15109;50.992;6.918;2022-11-14T08:54:07;10.98;;;3.85;;
27704;SDS011;15109;50.992;6.918;2022-11-14T08:57:47;7.75;;;4.38;;
27704;SDS011;15109;50.992;6.918;2022-11-14T09:01:28;10.73;;;4.75;;
27704;SDS011;15109;50.992;6.918;2022-11-14T09:05:13;12.07;;;4.45;;
27704;SDS011;15109;50.992;6.918;2022-11-14T09:08:53;8.43;;;4.38;;
27704;SDS011;15109;50.992;6.918;2022-11-14T09:12:37;9.38;;;4.22;;
27704;SDS011;15109;50.992;6.918;2022-11-14T09:16:20;14.35;;;4.45;;
27704;SDS011;15109;50.992;6.918;2022-11-14T09:20:00;9.65;;;4.43;;
27704;SDS011;15109;50.992;6.918;2022-11-14T09:23:40;10.15;;;4.50;;
27704;SDS011;15109;50.992;6.918;2022-11-14T09:27:20;7.30;;;4.07;;
27704;SDS011;15109;50.992;6.918;2022-11-14T09:31:05;4.65;;;3.00;;
27704;SDS011;15109;50.992;6.918;2022-11-14T09:34:49;8.20;;;4.30;;
27704;SDS011;15109;50.992;6.918;2022-11-14T09:38:31;8.43;;;4.32;;
27704;SDS011;15109;50.992;6.918;2022-11-14T09:46:11;6.50;;;3.63;;
27704;SDS011;15109;50.992;6.918;2022-11-14T09:50:13;8.82;;;4.25;;
27704;SDS011;15109;50.992;6.918;2022-11-14T09:53:59;9.88;;;4.38;;
27704;SDS011;15109;50.992;6.918;2022-11-14T09:57:46;9.20;;;4.80;;
27704;SDS011;15109;50.992;6.918;2022-11-14T10:01:40;10.07;;;4.53;;
27704;SDS011;15109;50.992;6.918;2022-11-14T10:13:44;13.32;;;5.60;;
27704;SDS011;15109;50.992;6.918;2022-11-14T10:25:29;13.13;;;5.43;;
27704;SDS011;15109;50.992;6.918;2022-11-14T10:29:34;7.90;;;4.63;;
27704;SDS011;15109;50.992;6.918;2022-11-14T10:41:58;8.13;;;4.18;;
27704;SDS011;15109;50.992;6.918;2022-11-14T10:45:49;8.57;;;4.45;;
27704;SDS011;15109;50.992;6.918;2022-11-14T10:49:39;10.32;;;4.40;;
27704;SDS011;15109;50.992;6.918;2022-11-14T10:53:26;11.00;;;5.10;;
27704;SDS011;15109;50.992;6.918;2022-11-14T10:57:16;6.20;;;3.67;;
27704;SDS011;15109;50.992;6.918;2022-11-14T11:05:24;9.37;;;4.30;;
27704;SDS011;15109;50.992;6.918;2022-11-14T11:13:36;10.70;;;4.80;;
27704;SDS011;15109;50.992;6.918;2022-11-14T11:17:26;10.60;;;4.97;;
27704;SDS011;15109;50.992;6.918;2022-11-14T11:21:07;8.90;;;4.43;;
27704;SDS011;15109;50.992;6.918;2022-11-14T11:24:51;12.73;;;5.55;;
27704;SDS011;15109;50.992;6.918;2022-11-14T11:28:33;10.32;;;5.05;;
27704;SDS011;15109;50.992;6.918;2022-11-14T11:32:23;9.73;;;4.63;;
27704;SDS011;15109;50.992;6.918;2022-11-14T11:36:15;8.27;;;4.53;;
27704;SDS011;15109;50.992;6.918;2022-11-14T11:40:03;12.75;;;4.30;;
27704;SDS011;15109;50.992;6.918;2022-11-14T11:43:53;7.90;;;4.43;;
27704;SDS011;15109;50.992;6.918;2022-11-14T11:47:37;9.35;;;5.22;;
27704;SDS011;15109;50.992;6.918;2022-11-14T11:51:21;9.32;;;4.78;;
27704;SDS011;15109;50.992;6.918;2022-11-14T11:58:48;11.65;;;4.57;;
27704;SDS011;15109;50.992;6.918;2022-11-14T12:02:40;10.10;;;5.43;;
27704;SDS011;15109;50.992;6.918;2022-11-14T12:06:23;11.68;;;5.25;;
27704;SDS011;15109;50.992;6.918;2022-11-14T12:10:16;9.93;;;5.30;;
27704;SDS011;15109;50.992;6.918;2022-11-14T12:30:06;11.02;;;5.43;;
27704;SDS011;15109;50.992;6.918;2022-11-14T12:33:53;11.25;;;4.70;;
27704;SDS011;15109;50.992;6.918;2022-11-14T12:37:43;7.05;;;4.20;;
27704;SDS011;15109;50.992;6.918;2022-11-14T12:41:26;9.60;;;4.55;;
27704;SDS011;15109;50.992;6.918;2022-11-14T12:53:38;12.10;;;4.78;;
27704;SDS011;15109;50.992;6.918;2022-11-14T12:57:27;13.43;;;4.57;;
27704;SDS011;15109;50.992;6.918;2022-11-14T13:09:21;8.50;;;4.77;;
27704;SDS011;15109;50.992;6.918;2022-11-14T13:13:07;9.93;;;5.40;;
27704;SDS011;15109;50.992;6.918;2022-11-14T13:17:21;6.97;;;3.92;;
27704;SDS011;15109;50.992;6.918;2022-11-14T13:21:25;7.25;;;3.83;;
27704;SDS011;15109;50.992;6.918;2022-11-14T13:25:25;12.32;;;5.63;;
27704;SDS011;15109;50.992;6.918;2022-11-14T13:29:06;7.78;;;3.95;;
27704;SDS011;15109;50.992;6.918;2022-11-14T13:33:08;8.93;;;5.03;;
27704;SDS011;15109;50.992;6.918;2022-11-14T13:36:51;8.23;;;4.93;;
27704;SDS011;15109;50.992;6.918;2022-11-14T13:40:46;11.73;;;5.28;;
27704;SDS011;15109;50.992;6.918;2022-11-14T13:52:42;10.45;;;4.65;;
27704;SDS011;15109;50.992;6.918;2022-11-14T13:56:33;12.13;;;4.93;;
27704;SDS011;15109;50.992;6.918;2022-11-14T14:00:39;13.32;;;5.57;;
27704;SDS011;15109;50.992;6.918;2022-11-14T14:08:40;8.75;;;4.22;;
27704;SDS011;15109;50.992;6.918;2022-11-14T14:12:51;8.77;;;5.15;;
27704;SDS011;15109;50.992;6.918;2022-11-14T14:20:30;9.68;;;4.70;;
27704;SDS011;15109;50.992;6.918;2022-11-14T14:24:29;12.82;;;5.55;;
27704;SDS011;15109;50.992;6.918;2022-11-14T14:32:37;10.48;;;5.43;;
27704;SDS011;15109;50.992;6.918;2022-11-14T14:36:24;8.10;;;4.18;;
27704;SDS011;15109;50.992;6.918;2022-11-14T14:40:20;11.32;;;5.00;;
27704;SDS011;15109;50.992;6.918;2022-11-14T14:44:22;10.27;;;4.85;;
27704;SDS011;15109;50.992;6.918;2022-11-14T14:48:13;17.05;;;6.00;;
27704;SDS011;15109;50.992;6.918;2022-11-14T14:51:56;8.18;;;4.22;;
27704;SDS011;15109;50.992;6.918;2022-11-14T14:55:36;11.57;;;5.70;;
27704;SDS011;15109;50.992;6.918;2022-11-14T14:59:16;7.88;;;4.03;;
27704;SDS011;15109;50.992;6.918;2022-11-14T15:02:57;9.40;;;4.70;;
27704;SDS011;15109;50.992;6.918;2022-11-14T15:06:38;14.35;;;5.95;;
27704;SDS011;15109;50.992;6.918;2022-11-14T15:10:19;10.73;;;4.88;;
27704;SDS011;15109;50.992;6.918;2022-11-14T15:14:01;8.30;;;5.30;;
27704;SDS011;15109;50.992;6.918;2022-11-14T15:17:41;10.95;;;4.95;;
27704;SDS011;15109;50.992;6.918;2022-11-14T15:28:53;8.38;;;4.13;;
27704;SDS011;15109;50.992;6.918;2022-11-14T15:32:49;8.50;;;4.32;;
27704;SDS011;15109;50.992;6.918;2022-11-14T15:36:33;9.10;;;4.82;;
27704;SDS011;15109;50.992;6.918;2022-11-14T15:40:15;8.23;;;4.82;;
27704;SDS011;15109;50.992;6.918;2022-11-14T15:43:59;9.38;;;4.82;;
27704;SDS011;15109;50.992;6.918;2022-11-14T15:47:44;9.63;;;4.97;;
27704;SDS011;15109;50.992;6.918;2022-11-14T15:51:43;9.82;;;4.55;;
27704;SDS011;15109;50.992;6.918;2022-11-14T15:55:25;8.30;;;4.88;;
27704;SDS011;15109;50.992;6.918;2022-11-14T15:59:11;6.68;;;3.85;;
27704;SDS011;15109;50.992;6.918;2022-11-14T16:02:57;12.07;;;4.85;;
27704;SDS011;15109;50.992;6.918;2022-11-14T16:06:38;7.88;;;4.35;;
27704;SDS011;15109;50.992;6.918;2022-11-14T16:10:23;20.23;;;5.30;;
27704;SDS011;15109;50.992;6.918;2022-11-14T16:14:05;10.57;;;5.38;;
27704;SDS011;15109;50.992;6.918;2022-11-14T16:17:46;9.43;;;4.95;;
27704;SDS011;15109;50.992;6.918;2022-11-14T16:21:29;10.70;;;5.05;;
27704;SDS011;15109;50.992;6.918;2022-11-14T16:25:17;10.35;;;5.28;;
27704;SDS011;15109;50.992;6.918;2022-11-14T16:29:05;7.07;;;4.18;;
27704;SDS011;15109;50.992;6.918;2022-11-14T16:32:46;7.78;;;4.43;;
27704;SDS011;15109;50.992;6.918;2022-11-14T16:36:27;7.55;;;5.10;;
27704;SDS011;15109;50.992;6.918;2022-11-14T16:40:13;8.85;;;4.43;;
27704;SDS011;15109;50.992;6.918;2022-11-14T16:44:07;8.95;;;4.90;;
27704;SDS011;15109;50.992;6.918;2022-11-14T16:47:53;9.07;;;4.88;;
27704;SDS011;15109;50.992;6.918;2022-11-14T16:51:34;10.02;;;5.72;;
27704;SDS011;15109;50.992;6.918;2022-11-14T16:55:14;10.90;;;4.10;;
27704;SDS011;15109;50.992;6.918;2022-11-14T16:58:54;12.32;;;4.90;;
27704;SDS011;15109;50.992;6.918;2022-11-14T17:02:35;8.65;;;4.57;;
27704;SDS011;15109;50.992;6.918;2022-11-14T17:06:15;9.40;;;4.85;;
27704;SDS011;15109;50.992;6.918;2022-11-14T17:09:55;9.95;;;4.75;;
27704;SDS011;15109;50.992;6.918;2022-11-14T17:13:36;11.30;;;6.57;;
27704;SDS011;15109;50.992;6.918;2022-11-14T17:17:16;5.93;;;3.85;;
27704;SDS011;15109;50.992;6.918;2022-11-14T17:20:56;11.00;;;5.15;;
27704;SDS011;15109;50.992;6.918;2022-11-14T17:24:35;5.18;;;3.03;;
27704;SDS011;15109;50.992;6.918;2022-11-14T17:28:15;7.35;;;3.88;;
27704;SDS011;15109;50.992;6.918;2022-11-14T17:31:55;9.63;;;4.82;;
27704;SDS011;15109;50.992;6.918;2022-11-14T17:35:35;15.82;;;4.88;;
27704;SDS011;15109;50.992;6.918;2022-11-14T17:39:14;10.60;;;4.13;;
27704;SDS011;15109;50.992;6.918;2022-11-14T17:42:56;6.95;;;3.83;;
27704;SDS011;15109;50.992;6.918;2022-11-14T17:46:36;5.80;;;3.25;;
27704;SDS011;15109;50.992;6.918;2022-11-14T17:50:15;8.00;;;4.18;;
27704;SDS011;15109;50.992;6.918;2022-11-14T17:53:55;6.82;;;4.22;;
27704;SDS011;15109;50.992;6.918;2022-11-14T17:57:35;7.22;;;3.22;;
27704;SDS011;15109;50.992;6.918;2022-11-14T18:01:15;7.57;;;4.28;;
27704;SDS011;15109;50.992;6.918;2022-11-14T18:04:58;5.82;;;3.13;;
27704;SDS011;15109;50.992;6.918;2022-11-14T18:08:38;6.80;;;3.35;;
27704;SDS011;15109;50.992;6.918;2022-11-14T18:12:20;9.30;;;3.05;;
27704;SDS011;15109;50.992;6.918;2022-11-14T18:16:00;8.68;;;4.07;;
27704;SDS011;15109;50.992;6.918;2022-11-14T18:19:45;6.80;;;3.17;;
27704;SDS011;15109;50.992;6.918;2022-11-14T18:23:26;5.60;;;3.25;;
27704;SDS011;15109;50.992;6.918;2022-11-14T18:27:05;4.85;;;2.40;;
27704;SDS011;15109;50.992;6.918;2022-11-14T18:30:51;5.53;;;2.50;;
27704;SDS011;15109;50.992;6.918;2022-11-14T18:34:34;4.57;;;2.35;;
27704;SDS011;15109;50.992;6.918;2022-11-14T18:38:15;5.93;;;3.33;;
27704;SDS011;15109;50.992;6.918;2022-11-14T18:41:54;5.18;;;2.42;;
27704;SDS011;15109;50.992;6.918;2022-11-14T18:45:34;5.53;;;2.65;;
27704;SDS011;15109;50.992;6.918;2022-11-14T18:49:15;5.13;;;2.75;;
27704;SDS011;15109;50.992;6.918;2022-11-14T18:52:55;6.20;;;2.83;;
27704;SDS011;15109;50.992;6.918;2022-11-14T18:56:36;5.38;;;2.88;;
27704;SDS011;15109;50.992;6.918;2022-11-14T19:00:18;5.03;;;2.95;;
27704;SDS011;15109;50.992;6.918;2022-11-14T19:03:58;7.68;;;3.30;;
27704;SDS011;15109;50.992;6.918;2022-11-14T19:07:42;4.32;;;2.47;;
27704;SDS011;15109;50.992;6.918;2022-11-14T19:11:22;4.18;;;1.92;;
27704;SDS011;15109;50.992;6.918;2022-11-14T19:15:20;6.22;;;3.50;;
27704;SDS011;15109;50.992;6.918;2022-11-14T19:19:01;6.78;;;3.03;;
27704;SDS011;15109;50.992;6.918;2022-11-14T19:22:42;8.52;;;4.18;;
27704;SDS011;15109;50.992;6.918;2022-11-14T19:26:23;8.20;;;3.45;;
27704;SDS011;15109;50.992;6.918;2022-11-14T19:30:08;6.63;;;2.70;;
27704;SDS011;15109;50.992;6.918;2022-11-14T19:33:48;8.25;;;3.65;;
27704;SDS011;15109;50.992;6.918;2022-11-14T19:37:30;6.25;;;3.60;;
27704;SDS011;15109;50.992;6.918;2022-11-14T19:41:15;8.10;;;3.08;;
27704;SDS011;15109;50.992;6.918;2022-11-14T19:45:04;8.65;;;3.55;;
27704;SDS011;15109;50.992;6.918;2022-11-14T19:48:45;4.60;;;2.45;;
27704;SDS011;15109;50.992;6.918;2022-11-14T19:52:25;9.85;;;3.42;;
27704;SDS011;15109;50.992;6.918;2022-11-14T19:56:06;6.50;;;3.55;;
27704;SDS011;15109;50.992;6.918;2022-11-14T19:59:47;4.97;;;2.67;;
27704;SDS011;15109;50.992;6.918;2022-11-14T20:03:27;6.43;;;3.72;;
27704;SDS011;15109;50.992;6.918;2022-11-14T20:07:09;7.63;;;3.67;;
27704;SDS011;15109;50.992;6.918;2022-11-14T20:10:56;8.13;;;3.45;;
27704;SDS011;15109;50.992;6.918;2022-11-14T20:14:40;3.45;;;2.03;;
27704;SDS011;15109;50.992;6.918;2022-11-14T20:18:20;6.03;;;3.55;;
27704;SDS011;15109;50.992;6.918;2022-11-14T20:22:00;4.65;;;2.50;;
27704;SDS011;15109;50.992;6.918;2022-11-14T20:25:40;8.00;;;3.60;;
27704;SDS011;15109;50.992;6.918;2022-11-14T20:29:21;4.40;;;2.72;;
27704;SDS011;15109;50.992;6.918;2022-11-14T20:33:02;4.85;;;3.13;;
27704;SDS011;15109;50.992;6.918;2022-11-14T20:36:41;5.07;;;2.90;;
27704;SDS011;15109;50.992;6.918;2022-11-14T20:40:22;4.88;;;2.63;;
27704;SDS011;15109;50.992;6.918;2022-11-14T20:44:02;9.43;;;3.17;;
27704;SDS011;15109;50.992;6.918;2022-11-14T20:47:42;6.95;;;3.38;;
27704;SDS011;15109;50.992;6.918;2022-11-14T20:51:23;9.40;;;3.08;;
27704;SDS011;15109;50.992;6.918;2022-11-14T20:55:06;5.15;;;2.70;;
27704;SDS011;15109;50.992;6.918;2022-11-14T20:58:50;4.30;;;2.35;;
27704;SDS011;15109;50.992;6.918;2022-11-14T21:02:31;4.53;;;2.80;;
27704;SDS011;15109;50.992;6.918;2022-11-14T21:06:11;4.82;;;2.85;;
27704;SDS011;15109;50.992;6.918;2022-11-14T21:09:52;9.68;;;2.90;;
27704;SDS011;15109;50.992;6.918;2022-11-14T21:13:52;7.20;;;3.40;;
27704;SDS011;15109;50.992;6.918;2022-11-14T21:17:35;8.90;;;3.08;;
27704;SDS011;15109;50.992;6.918;2022-11-14T21:21:18;6.28;;;2.83;;
27704;SDS011;15109;50.992;6.918;2022-11-14T21:24:59;5.43;;;2.63;;
27704;SDS011;15109;50.992;6.918;2022-11-14T21:28:41;5.63;;;2.72;;
27704;SDS011;15109;50.992;6.918;2022-11-14T21:32:23;3.80;;;1.95;;
27704;SDS011;15109;50.992;6.918;2022-11-14T21:36:06;7.82;;;3.05;;
27704;SDS011;15109;50.992;6.918;2022-11-14T21:39:46;7.28;;;2.95;;
27704;SDS011;15109;50.992;6.918;2022-11-14T21:43:27;5.90;;;2.78;;
27704;SDS011;15109;50.992;6.918;2022-11-14T21:47:10;3.70;;;2.30;;
27704;SDS011;15109;50.992;6.918;2022-11-14T21:50:50;5.50;;;2.45;;
27704;SDS011;15109;50.992;6.918;2022-11-14T21:54:30;4.15;;;2.42;;
27704;SDS011;15109;50.992;6.918;2022-11-14T21:58:10;3.30;;;1.98;;
27704;SDS011;15109;50.992;6.918;2022-11-14T22:01:51;7.22;;;1.95;;
27704;SDS011;15109;50.992;6.918;2022-11-14T22:05:55;5.78;;;2.47;;
27704;SDS011;15109;50.992;6.918;2022-11-14T22:09:37;3.75;;;2.08;;
27704;SDS011;15109;50.992;6.918;2022-11-14T22:13:17;3.70;;;1.92;;
27704;SDS011;15109;50.992;6.918;2022-11-14T22:16:58;3.42;;;2.00;;
27704;SDS011;15109;50.992;6.918;2022-11-14T22:20:38;4.57;;;1.60;;
27704;SDS011;15109;50.992;6.918;2022-11-14T22:24:17;4.47;;;2.60;;
27704;SDS011;15109;50.992;6.918;2022-11-14T22:27:57;5.35;;;2.28;;
27704;SDS011;15109;50.992;6.918;2022-11-14T22:31:37;5.32;;;2.33;;
27704;SDS011;15109;50.992;6.918;2022-11-14T22:35:17;3.78;;;2.08;;
27704;SDS011;15109;50.992;6.918;2022-11-14T22:38:56;6.68;;;2.45;;
27704;SDS011;15109;50.992;6.918;2022-11-14T22:42:37;6.10;;;2.45;;
27704;SDS011;15109;50.992;6.918;2022-11-14T22:46:17;4.35;;;2.25;;
27704;SDS011;15109;50.992;6.918;2022-11-14T22:49:58;4.05;;;2.42;;
27704;SDS011;15109;50.992;6.918;2022-11-14T22:53:38;4.03;;;2.03;;
27704;SDS011;15109;50.992;6.918;2022-11-14T22:57:19;4.00;;;2.42;;
27704;SDS011;15109;50.992;6.918;2022-11-14T23:01:00;3.38;;;1.85;;
27704;SDS011;15109;50.992;6.918;2022-11-14T23:04:47;5.82;;;2.47;;
27704;SDS011;15109;50.992;6.918;2022-11-14T23:08:27;3.60;;;1.45;;
27704;SDS011;15109;50.992;6.918;2022-11-14T23:12:11;4.03;;;2.17;;
27704;SDS011;15109;50.992;6.918;2022-11-14T23:15:51;2.60;;;1.70;;
27704;SDS011;15109;50.992;6.918;2022-11-14T23:19:31;4.10;;;2.30;;
27704;SDS011;15109;50.992;6.918;2022-11-14T23:23:10;7.85;;;2.83;;
27704;SDS011;15109;50.992;6.918;2022-11-14T23:26:53;5.03;;;2.47;;
27704;SDS011;15109;50.992;6.918;2022-11-14T23:30:33;5.60;;;2.47;;
27704;SDS011;15109;50.992;6.918;2022-11-14T23:34:14;4.03;;;2.00;;
27704;SDS011;15109;50.992;6.918;2022-11-14T23:37:53;4.13;;;2.03;;
27704;SDS011;15109;50.992;6.918;2022-11-14T23:41:33;2.85;;;1.75;;
27704;SDS011;15109;50.992;6.918;2022-11-14T23:45:13;4.10;;;2.47;;
27704;SDS011;15109;50.992;6.918;2022-11-14T23:48:52;6.68;;;2.20;;
27704;SDS011;15109;50.992;6.918;2022-11-14T23:52:32;2.85;;;1.67;;
27704;SDS011;15109;50.992;6.918;2022-11-14T23:56:13;5.07;;;2.67;;
27704;SDS011;15109;50.992;6.918;2022-11-14T23:59:53;4.00;;;2.25;;
